createdAt,value
2018-05-09T00:00:10.268Z,9.10
2018-05-09T00:01:10.232Z,9.13
2018-05-09T00:02:10.211Z,9.15
2018-05-09T00:03:10.168Z,9.11
2018-05-09T00:04:10.117Z,9.15
2018-05-09T00:05:10.070Z,9.01
2018-05-09T00:06:10.033Z,9.01
2018-05-09T00:07:10.019Z,9.08
2018-05-09T00:08:09.964Z,9.02
2018-05-09T00:09:09.936Z,8.98
2018-05-09T00:10:09.965Z,8.91
2018-05-09T00:11:10.136Z,8.81
2018-05-09T00:12:09.808Z,8.63
2018-05-09T00:13:09.796Z,8.84
2018-05-09T00:14:09.748Z,8.95
2018-05-09T00:15:09.717Z,8.94
2018-05-09T00:16:09.659Z,8.94
2018-05-09T00:17:09.627Z,9.01
2018-05-09T00:18:09.580Z,8.99
2018-05-09T00:19:09.554Z,8.94
2018-05-09T00:20:09.513Z,8.86
2018-05-09T00:21:09.467Z,8.84
2018-05-09T00:22:09.450Z,8.86
2018-05-09T00:23:09.397Z,8.83
2018-05-09T00:24:09.349Z,8.73
2018-05-09T00:25:09.308Z,8.59
2018-05-09T00:26:09.323Z,8.63
2018-05-09T00:27:09.249Z,8.53
2018-05-09T00:28:09.191Z,8.34
2018-05-09T00:29:09.178Z,8.34
2018-05-09T00:30:09.144Z,8.38
2018-05-09T00:31:09.108Z,8.38
2018-05-09T00:32:09.065Z,8.25
2018-05-09T00:33:09.002Z,8.25
2018-05-09T00:34:08.985Z,8.26
2018-05-09T00:35:08.943Z,8.23
2018-05-09T00:36:08.885Z,8.26
2018-05-09T00:37:08.868Z,8.22
2018-05-09T00:38:08.840Z,8.36
2018-05-09T00:39:08.814Z,8.53
2018-05-09T00:40:08.762Z,8.52
2018-05-09T00:41:08.750Z,8.37
2018-05-09T00:42:08.744Z,8.40
2018-05-09T00:43:08.638Z,8.37
2018-05-09T00:44:08.593Z,8.36
2018-05-09T00:45:08.578Z,8.23
2018-05-09T00:46:08.545Z,8.38
2018-05-09T00:47:08.544Z,8.55
2018-05-09T00:48:08.439Z,8.65
2018-05-09T00:49:08.416Z,8.65
2018-05-09T00:50:08.431Z,8.63
2018-05-09T00:51:08.356Z,8.53
2018-05-09T00:52:08.284Z,8.47
2018-05-09T00:53:08.262Z,8.48
2018-05-09T00:54:08.211Z,8.43
2018-05-09T00:55:08.163Z,8.25
2018-05-09T00:56:08.159Z,8.22
2018-05-09T00:57:08.139Z,8.25
2018-05-09T00:58:08.070Z,8.25
2018-05-09T00:59:08.024Z,8.26
2018-05-09T01:00:07.995Z,8.25
2018-05-09T01:01:07.938Z,8.19
2018-05-09T01:02:07.903Z,8.04
2018-05-09T01:03:07.865Z,8.15
2018-05-09T01:04:07.881Z,8.25
2018-05-09T01:05:07.859Z,8.37
2018-05-09T01:06:07.751Z,8.45
2018-05-09T01:07:08.787Z,8.37
2018-05-09T01:08:07.671Z,8.23
2018-05-09T01:09:07.649Z,8.25
2018-05-09T01:10:07.607Z,8.20
2018-05-09T01:11:07.587Z,8.23
2018-05-09T01:12:07.543Z,8.05
2018-05-09T01:13:07.492Z,7.93
2018-05-09T01:14:07.441Z,7.97
2018-05-09T01:15:07.395Z,7.74
2018-05-09T01:16:07.365Z,7.87
2018-05-09T01:17:07.354Z,7.85
2018-05-09T01:18:07.320Z,8.04
2018-05-09T01:19:07.292Z,8.07
2018-05-09T01:20:07.274Z,8.16
2018-05-09T01:21:07.201Z,8.12
2018-05-09T01:22:07.120Z,8.05
2018-05-09T01:23:07.121Z,8.02
2018-05-09T01:24:07.058Z,7.80
2018-05-09T01:25:07.065Z,7.92
2018-05-09T01:26:07.002Z,8.00
2018-05-09T01:27:07.983Z,7.87
2018-05-09T01:28:06.891Z,7.80
2018-05-09T01:29:06.891Z,7.87
2018-05-09T01:30:06.822Z,7.93
2018-05-09T01:31:06.794Z,8.02
2018-05-09T01:32:06.741Z,8.10
2018-05-09T01:33:06.704Z,7.95
2018-05-09T01:34:06.656Z,7.95
2018-05-09T01:35:06.623Z,7.80
2018-05-09T01:36:06.589Z,7.92
2018-05-09T01:37:06.549Z,7.90
2018-05-09T01:38:06.513Z,7.87
2018-05-09T01:39:06.502Z,7.74
2018-05-09T01:40:06.458Z,7.61
2018-05-09T01:41:06.453Z,7.48
2018-05-09T01:42:06.348Z,7.43
2018-05-09T01:43:06.321Z,7.28
2018-05-09T01:44:06.319Z,7.24
2018-05-09T01:45:06.236Z,7.24
2018-05-09T01:46:06.325Z,7.28
2018-05-09T01:47:06.194Z,7.58
2018-05-09T01:48:06.123Z,7.74
2018-05-09T01:49:06.081Z,7.71
2018-05-09T01:50:06.060Z,7.68
2018-05-09T01:51:06.044Z,7.72
2018-05-09T01:52:06.027Z,7.64
2018-05-09T01:53:05.939Z,7.45
2018-05-09T01:54:05.939Z,7.37
2018-05-09T01:55:05.918Z,7.39
2018-05-09T01:56:05.820Z,7.48
2018-05-09T01:57:05.808Z,7.58
2018-05-09T01:58:05.729Z,7.52
2018-05-09T01:59:05.719Z,7.48
2018-05-09T02:00:05.663Z,7.35
2018-05-09T02:01:05.679Z,7.50
2018-05-09T02:02:05.621Z,7.46
2018-05-09T02:03:05.623Z,7.42
2018-05-09T02:04:05.519Z,7.48
2018-05-09T02:05:05.469Z,7.49
2018-05-09T02:06:05.540Z,7.69
2018-05-09T02:07:05.387Z,7.72
2018-05-09T02:08:05.347Z,7.80
2018-05-09T02:09:05.308Z,7.71
2018-05-09T02:10:05.316Z,7.68
2018-05-09T02:11:05.232Z,7.55
2018-05-09T02:12:05.195Z,7.58
2018-05-09T02:13:05.188Z,7.55
2018-05-09T02:14:05.117Z,7.53
2018-05-09T02:15:05.135Z,7.52
2018-05-09T02:16:05.078Z,7.64
2018-05-09T02:17:05.056Z,7.72
2018-05-09T02:18:04.966Z,7.61
2018-05-09T02:19:04.950Z,7.48
2018-05-09T02:20:04.956Z,7.45
2018-05-09T02:21:04.847Z,7.50
2018-05-09T02:22:04.888Z,7.45
2018-05-09T02:23:04.772Z,7.45
2018-05-09T02:24:04.759Z,7.40
2018-05-09T02:25:04.727Z,7.45
2018-05-09T02:26:04.675Z,7.53
2018-05-09T02:27:04.612Z,7.43
2018-05-09T02:28:04.568Z,7.31
2018-05-09T02:29:04.556Z,7.25
2018-05-09T02:30:04.504Z,7.25
2018-05-09T02:31:04.495Z,7.31
2018-05-09T02:32:04.540Z,7.30
2018-05-09T02:33:04.443Z,7.23
2018-05-09T02:34:04.347Z,6.98
2018-05-09T02:35:04.362Z,6.98
2018-05-09T02:36:04.246Z,6.92
2018-05-09T02:37:04.228Z,7.05
2018-05-09T02:38:04.168Z,6.89
2018-05-09T02:39:04.172Z,6.81
2018-05-09T02:40:04.118Z,6.92
2018-05-09T02:41:04.071Z,6.87
2018-05-09T02:42:04.083Z,7.09
2018-05-09T02:43:04.042Z,7.17
2018-05-09T02:44:03.942Z,7.40
2018-05-09T02:45:03.911Z,7.52
2018-05-09T02:46:03.889Z,7.49
2018-05-09T02:47:03.831Z,7.50
2018-05-09T02:48:03.794Z,7.61
2018-05-09T02:49:03.820Z,7.67
2018-05-09T02:50:03.722Z,7.61
2018-05-09T02:51:03.685Z,7.49
2018-05-09T02:52:03.664Z,7.50
2018-05-09T02:53:03.632Z,7.45
2018-05-09T02:54:03.572Z,7.52
2018-05-09T02:55:03.524Z,7.42
2018-05-09T02:56:03.491Z,7.45
2018-05-09T02:57:03.449Z,7.39
2018-05-09T02:58:03.404Z,7.31
2018-05-09T02:59:03.353Z,7.23
2018-05-09T03:00:03.341Z,7.07
2018-05-09T03:01:03.297Z,7.03
2018-05-09T03:02:03.898Z,6.97
2018-05-09T03:03:03.201Z,7.20
2018-05-09T03:04:03.170Z,7.31
2018-05-09T03:05:03.131Z,7.43
2018-05-09T03:06:03.111Z,7.40
2018-05-09T03:07:03.040Z,7.27
2018-05-09T03:08:03.031Z,7.20
2018-05-09T03:09:02.966Z,7.12
2018-05-09T03:10:02.926Z,7.16
2018-05-09T03:11:02.917Z,7.28
2018-05-09T03:12:02.863Z,7.31
2018-05-09T03:13:02.849Z,7.43
2018-05-09T03:14:02.771Z,7.58
2018-05-09T03:15:02.718Z,7.40
2018-05-09T03:16:02.760Z,7.21
2018-05-09T03:17:02.644Z,7.21
2018-05-09T03:18:02.608Z,7.07
2018-05-09T03:19:02.584Z,7.05
2018-05-09T03:20:02.519Z,6.98
2018-05-09T03:21:02.562Z,7.06
2018-05-09T03:22:02.480Z,7.09
2018-05-09T03:23:02.418Z,7.05
2018-05-09T03:24:02.380Z,7.02
2018-05-09T03:25:02.340Z,6.92
2018-05-09T03:26:02.304Z,6.80
2018-05-09T03:27:02.251Z,6.88
2018-05-09T03:28:02.273Z,6.73
2018-05-09T03:29:02.175Z,6.87
2018-05-09T03:30:02.169Z,7.02
2018-05-09T03:31:02.142Z,7.10
2018-05-09T03:32:02.070Z,7.20
2018-05-09T03:33:02.052Z,7.20
2018-05-09T03:34:02.000Z,7.09
2018-05-09T03:35:01.948Z,7.03
2018-05-09T03:36:01.921Z,7.03
2018-05-09T03:37:01.877Z,6.88
2018-05-09T03:38:01.861Z,7.03
2018-05-09T03:39:01.794Z,6.97
2018-05-09T03:40:01.770Z,6.87
2018-05-09T03:41:01.717Z,6.79
2018-05-09T03:42:01.702Z,6.80
2018-05-09T03:43:01.635Z,6.71
2018-05-09T03:44:01.596Z,6.77
2018-05-09T03:45:01.553Z,6.74
2018-05-09T03:46:01.507Z,6.76
2018-05-09T03:47:02.445Z,6.73
2018-05-09T03:48:01.454Z,6.69
2018-05-09T03:49:01.425Z,6.64
2018-05-09T03:50:01.383Z,6.74
2018-05-09T03:51:01.328Z,6.85
2018-05-09T03:52:01.299Z,6.81
2018-05-09T03:53:01.234Z,6.88
2018-05-09T03:54:01.198Z,6.89
2018-05-09T03:55:01.200Z,6.99
2018-05-09T03:56:01.134Z,7.09
2018-05-09T03:57:01.113Z,7.28
2018-05-09T03:58:01.050Z,7.35
2018-05-09T03:59:01.060Z,7.40
2018-05-09T04:00:00.980Z,7.48
2018-05-09T04:01:00.963Z,7.52
2018-05-09T04:02:00.919Z,7.45
2018-05-09T04:03:00.845Z,7.43
2018-05-09T04:04:00.830Z,7.45
2018-05-09T04:05:00.814Z,7.52
2018-05-09T04:06:00.731Z,7.45
2018-05-09T04:07:01.423Z,7.50
2018-05-09T04:08:00.668Z,7.40
2018-05-09T04:09:00.754Z,7.37
2018-05-09T04:10:00.602Z,7.48
2018-05-09T04:11:00.580Z,7.50
2018-05-09T04:12:00.732Z,7.53
2018-05-09T04:13:00.454Z,7.53
2018-05-09T04:14:00.416Z,7.55
2018-05-09T04:15:00.409Z,7.68
2018-05-09T04:16:00.324Z,7.79
2018-05-09T04:17:00.442Z,7.68
2018-05-09T04:18:00.264Z,7.71
2018-05-09T04:19:00.227Z,7.64
2018-05-09T04:20:00.192Z,7.74
2018-05-09T04:21:00.160Z,7.77
2018-05-09T04:22:00.117Z,7.71
2018-05-09T04:23:00.081Z,7.72
2018-05-09T04:24:00.028Z,7.87
2018-05-09T04:25:00.081Z,7.92
2018-05-09T04:25:59.972Z,7.87
2018-05-09T04:26:59.935Z,7.93
2018-05-09T04:27:59.888Z,7.98
2018-05-09T04:28:59.828Z,7.95
2018-05-09T04:29:59.809Z,7.86
2018-05-09T04:30:59.782Z,8.04
2018-05-09T04:31:59.751Z,8.02
2018-05-09T04:32:59.693Z,8.05
2018-05-09T04:33:59.643Z,8.11
2018-05-09T04:34:59.679Z,8.08
2018-05-09T04:35:59.545Z,8.18
2018-05-09T04:36:59.546Z,8.28
2018-05-09T04:37:59.488Z,8.25
2018-05-09T04:38:59.440Z,8.25
2018-05-09T04:39:59.416Z,8.29
2018-05-09T04:40:59.353Z,8.45
2018-05-09T04:41:59.363Z,8.45
2018-05-09T04:42:59.288Z,8.55
2018-05-09T04:43:59.244Z,8.52
2018-05-09T04:44:59.268Z,8.45
2018-05-09T04:45:59.160Z,8.45
2018-05-09T04:46:59.123Z,8.61
2018-05-09T04:47:59.077Z,8.59
2018-05-09T04:48:59.088Z,8.63
2018-05-09T04:49:59.105Z,8.70
2018-05-09T04:50:59.003Z,8.71
2018-05-09T04:51:58.934Z,8.77
2018-05-09T04:52:58.897Z,8.86
2018-05-09T04:53:58.859Z,8.89
2018-05-09T04:54:58.883Z,8.95
2018-05-09T04:55:58.820Z,8.79
2018-05-09T04:56:58.746Z,8.91
2018-05-09T04:57:58.714Z,8.86
2018-05-09T04:58:58.676Z,8.92
2018-05-09T04:59:58.627Z,8.91
2018-05-09T05:00:59.423Z,8.83
2018-05-09T05:01:58.580Z,8.84
2018-05-09T05:02:58.513Z,8.95
2018-05-09T05:03:58.520Z,8.98
2018-05-09T05:04:58.464Z,9.21
2018-05-09T05:05:58.458Z,9.32
2018-05-09T05:06:58.401Z,9.53
2018-05-09T05:07:58.330Z,9.91
2018-05-09T05:08:58.293Z,10.42
2018-05-09T05:09:58.264Z,11.11
2018-05-09T05:10:58.227Z,11.58
2018-05-09T05:11:58.190Z,11.44
2018-05-09T05:12:58.149Z,11.44
2018-05-09T05:13:58.915Z,12.12
2018-05-09T05:14:58.090Z,12.56
2018-05-09T05:15:58.027Z,12.86
2018-05-09T05:16:57.994Z,12.97
2018-05-09T05:17:58.040Z,13.19
2018-05-09T05:18:57.934Z,13.23
2018-05-09T05:19:57.885Z,12.85
2018-05-09T05:20:57.840Z,12.65
2018-05-09T05:21:57.802Z,12.46
2018-05-09T05:22:57.790Z,11.91
2018-05-09T05:23:57.747Z,11.40
2018-05-09T05:24:57.734Z,11.22
2018-05-09T05:25:58.429Z,11.32
2018-05-09T05:26:57.665Z,11.36
2018-05-09T05:27:57.609Z,11.40
2018-05-09T05:28:57.664Z,11.55
2018-05-09T05:29:57.532Z,12.02
2018-05-09T05:30:57.475Z,12.13
2018-05-09T05:31:57.458Z,12.28
2018-05-09T05:32:57.413Z,12.45
2018-05-09T05:33:57.390Z,12.49
2018-05-09T05:34:57.340Z,12.24
2018-05-09T05:35:57.308Z,12.04
2018-05-09T05:36:57.274Z,11.90
2018-05-09T05:37:57.246Z,11.90
2018-05-09T05:38:57.224Z,11.88
2018-05-09T05:39:57.200Z,11.91
2018-05-09T05:40:57.181Z,11.99
2018-05-09T05:41:57.104Z,12.02
2018-05-09T05:42:57.117Z,12.01
2018-05-09T05:43:57.034Z,12.16
2018-05-09T05:44:57.117Z,12.12
2018-05-09T05:45:56.974Z,12.29
2018-05-09T05:46:56.948Z,12.41
2018-05-09T05:47:56.924Z,12.65
2018-05-09T05:48:56.886Z,12.82
2018-05-09T05:49:56.841Z,12.67
2018-05-09T05:50:56.784Z,12.67
2018-05-09T05:51:56.757Z,12.52
2018-05-09T05:52:56.736Z,12.59
2018-05-09T05:53:56.680Z,12.96
2018-05-09T05:54:56.672Z,12.97
2018-05-09T05:55:56.689Z,12.89
2018-05-09T05:56:56.571Z,12.92
2018-05-09T05:57:56.568Z,13.17
2018-05-09T05:58:56.603Z,13.36
2018-05-09T05:59:56.469Z,13.33
2018-05-09T06:00:56.460Z,13.54
2018-05-09T06:01:56.412Z,13.69
2018-05-09T06:02:56.375Z,14.02
2018-05-09T06:03:56.329Z,14.21
2018-05-09T06:04:56.304Z,14.64
2018-05-09T06:05:56.293Z,14.72
2018-05-09T06:06:56.243Z,14.78
2018-05-09T06:07:56.208Z,14.77
2018-05-09T06:08:56.168Z,14.75
2018-05-09T06:09:56.150Z,14.89
2018-05-09T06:10:56.110Z,14.86
2018-05-09T06:11:56.159Z,15.01
2018-05-09T06:12:56.044Z,15.16
2018-05-09T06:13:56.016Z,15.27
2018-05-09T06:14:55.975Z,15.32
2018-05-09T06:15:55.940Z,15.35
2018-05-09T06:16:55.912Z,15.28
2018-05-09T06:17:55.870Z,15.43
2018-05-09T06:18:55.853Z,15.46
2018-05-09T06:19:55.816Z,15.56
2018-05-09T06:20:55.764Z,15.59
2018-05-09T06:21:55.732Z,15.64
2018-05-09T06:22:55.699Z,15.68
2018-05-09T06:23:55.738Z,15.69
2018-05-09T06:24:55.638Z,15.82
2018-05-09T06:25:55.623Z,16.02
2018-05-09T06:26:55.596Z,16.15
2018-05-09T06:27:55.542Z,16.15
2018-05-09T06:28:55.509Z,16.14
2018-05-09T06:29:55.478Z,16.02
2018-05-09T06:30:55.490Z,16.11
2018-05-09T06:31:55.400Z,16.14
2018-05-09T06:32:55.380Z,16.09
2018-05-09T06:33:55.344Z,16.04
2018-05-09T06:34:55.303Z,16.08
2018-05-09T06:35:55.381Z,16.12
2018-05-09T06:36:55.260Z,16.15
2018-05-09T06:37:55.252Z,16.42
2018-05-09T06:38:55.195Z,16.42
2018-05-09T06:39:55.135Z,16.56
2018-05-09T06:40:55.148Z,16.56
2018-05-09T06:41:55.087Z,16.66
2018-05-09T06:42:55.110Z,16.82
2018-05-09T06:43:55.015Z,16.97
2018-05-09T06:44:54.996Z,17.48
2018-05-09T06:45:54.981Z,18.62
2018-05-09T06:46:54.985Z,20.01
2018-05-09T06:47:54.882Z,20.91
2018-05-09T06:48:54.861Z,21.92
2018-05-09T06:49:54.897Z,22.92
2018-05-09T06:50:54.957Z,22.47
2018-05-09T06:51:54.762Z,23.16
2018-05-09T06:52:54.738Z,24.02
2018-05-09T06:53:54.707Z,24.55
2018-05-09T06:54:54.668Z,24.43
2018-05-09T06:55:54.646Z,23.57
2018-05-09T06:56:54.616Z,23.31
2018-05-09T06:57:54.603Z,22.17
2018-05-09T06:58:54.686Z,22.05
2018-05-09T06:59:54.607Z,21.94
2018-05-09T07:00:54.493Z,22.95
2018-05-09T07:01:54.485Z,23.78
2018-05-09T07:02:54.460Z,24.31
2018-05-09T07:03:54.412Z,24.52
2018-05-09T07:04:54.382Z,25.51
2018-05-09T07:05:54.380Z,26.02
2018-05-09T07:06:54.332Z,26.62
2018-05-09T07:07:54.304Z,26.95
2018-05-09T07:08:54.328Z,26.88
2018-05-09T07:09:54.268Z,27.46
2018-05-09T07:10:54.263Z,27.69
2018-05-09T07:11:54.241Z,26.67
2018-05-09T07:12:54.185Z,26.84
2018-05-09T07:13:54.165Z,27.40
2018-05-09T07:14:54.142Z,26.80
2018-05-09T07:15:54.208Z,26.57
2018-05-09T07:16:54.125Z,27.32
2018-05-09T07:17:54.102Z,27.60
2018-05-09T07:18:54.079Z,27.12
2018-05-09T07:19:54.062Z,27.25
2018-05-09T07:20:54.009Z,27.94
2018-05-09T07:21:53.984Z,28.40
2018-05-09T07:22:53.983Z,28.62
2018-05-09T07:23:53.979Z,29.05
2018-05-09T07:24:53.977Z,28.98
2018-05-09T07:25:53.921Z,28.30
2018-05-09T07:26:53.872Z,26.80
2018-05-09T07:27:53.856Z,26.57
2018-05-09T07:28:53.832Z,27.34
2018-05-09T07:29:53.837Z,27.97
2018-05-09T07:30:53.804Z,28.27
2018-05-09T07:31:53.781Z,28.18
2018-05-09T07:32:53.755Z,27.66
2018-05-09T07:33:53.756Z,28.51
2018-05-09T07:34:53.735Z,28.89
2018-05-09T07:35:53.735Z,27.66
2018-05-09T07:36:53.682Z,27.43
2018-05-09T07:37:53.656Z,24.58
2018-05-09T07:38:53.659Z,23.31
2018-05-09T07:39:53.640Z,23.35
2018-05-09T07:40:53.591Z,22.45
2018-05-09T07:41:53.588Z,22.64
2018-05-09T07:42:53.588Z,21.96
2018-05-09T07:43:53.596Z,22.47
2018-05-09T07:44:53.516Z,22.76
2018-05-09T07:45:53.513Z,23.07
2018-05-09T07:46:53.492Z,23.17
2018-05-09T07:47:53.638Z,23.33
2018-05-09T07:48:53.447Z,22.97
2018-05-09T07:49:53.466Z,22.79
2018-05-09T07:50:53.425Z,22.97
2018-05-09T07:51:53.392Z,22.91
2018-05-09T07:52:53.379Z,22.58
2018-05-09T07:53:53.329Z,22.43
2018-05-09T07:54:53.349Z,22.36
2018-05-09T07:55:53.979Z,22.22
2018-05-09T07:56:53.317Z,22.18
2018-05-09T07:57:53.280Z,22.27
2018-05-09T07:58:53.232Z,22.54
2018-05-09T07:59:53.213Z,22.76
2018-05-09T08:00:53.195Z,23.36
2018-05-09T08:01:53.164Z,24.43
2018-05-09T08:02:53.131Z,25.14
2018-05-09T08:03:53.133Z,25.33
2018-05-09T08:04:53.104Z,26.20
2018-05-09T08:05:53.084Z,26.65
2018-05-09T08:06:53.064Z,26.92
2018-05-09T08:07:53.035Z,25.82
2018-05-09T08:08:53.018Z,24.46
2018-05-09T08:09:53.014Z,24.96
2018-05-09T08:10:52.969Z,25.21
2018-05-09T08:11:52.941Z,25.76
2018-05-09T08:12:53.011Z,26.15
2018-05-09T08:13:52.910Z,27.09
2018-05-09T08:14:52.908Z,27.84
2018-05-09T08:15:52.857Z,28.74
2018-05-09T08:16:52.866Z,28.80
2018-05-09T08:17:52.826Z,28.48
2018-05-09T08:18:52.814Z,28.49
2018-05-09T08:19:52.823Z,28.86
2018-05-09T08:20:52.746Z,28.09
2018-05-09T08:21:52.732Z,26.50
2018-05-09T08:22:52.707Z,26.52
2018-05-09T08:23:52.772Z,26.80
2018-05-09T08:24:52.679Z,26.60
2018-05-09T08:25:52.650Z,25.99
2018-05-09T08:26:52.633Z,25.88
2018-05-09T08:27:52.653Z,26.39
2018-05-09T08:28:52.618Z,26.57
2018-05-09T08:29:52.604Z,26.57
2018-05-09T08:30:52.584Z,26.29
2018-05-09T08:31:52.562Z,26.39
2018-05-09T08:32:52.559Z,26.13
2018-05-09T08:33:52.544Z,25.88
2018-05-09T08:34:52.462Z,25.95
2018-05-09T08:35:52.457Z,26.70
2018-05-09T08:36:52.431Z,26.75
2018-05-09T08:37:52.420Z,27.44
2018-05-09T08:38:52.417Z,28.03
2018-05-09T08:39:52.411Z,28.67
2018-05-09T08:40:52.348Z,28.55
2018-05-09T08:41:52.358Z,28.24
2018-05-09T08:42:52.332Z,29.06
2018-05-09T08:43:52.465Z,28.46
2018-05-09T08:44:52.301Z,27.13
2018-05-09T08:45:52.283Z,26.75
2018-05-09T08:46:52.281Z,26.80
2018-05-09T08:47:52.258Z,25.83
2018-05-09T08:48:52.214Z,26.21
2018-05-09T08:49:52.188Z,25.76
2018-05-09T08:50:52.177Z,25.40
2018-05-09T08:51:52.163Z,25.87
2018-05-09T08:52:52.162Z,26.66
2018-05-09T08:53:52.112Z,27.09
2018-05-09T08:54:52.131Z,26.97
2018-05-09T08:55:52.066Z,27.78
2018-05-09T08:56:52.052Z,28.09
2018-05-09T08:57:52.041Z,27.27
2018-05-09T08:58:52.018Z,27.47
2018-05-09T08:59:51.987Z,27.72
2018-05-09T09:00:51.990Z,28.24
2018-05-09T09:01:51.973Z,29.11
2018-05-09T09:02:51.946Z,28.49
2018-05-09T09:03:51.943Z,26.52
2018-05-09T09:04:51.916Z,24.76
2018-05-09T09:05:51.879Z,24.52
2018-05-09T09:06:51.883Z,25.52
2018-05-09T09:07:51.882Z,24.98
2018-05-09T09:08:51.872Z,25.15
2018-05-09T09:09:51.827Z,25.97
2018-05-09T09:10:51.832Z,26.51
2018-05-09T09:11:51.858Z,26.45
2018-05-09T09:12:51.759Z,25.61
2018-05-09T09:13:51.750Z,24.50
2018-05-09T09:14:51.716Z,25.30
2018-05-09T09:15:51.759Z,25.77
2018-05-09T09:16:51.685Z,25.24
2018-05-09T09:17:51.671Z,25.64
2018-05-09T09:18:51.680Z,25.28
2018-05-09T09:19:51.633Z,26.18
2018-05-09T09:20:51.660Z,25.09
2018-05-09T09:21:51.606Z,23.91
2018-05-09T09:22:51.559Z,24.05
2018-05-09T09:23:51.563Z,23.60
2018-05-09T09:24:51.550Z,23.01
2018-05-09T09:25:51.525Z,22.97
2018-05-09T09:26:51.522Z,22.68
2018-05-09T09:27:51.498Z,22.67
2018-05-09T09:28:51.481Z,22.79
2018-05-09T09:29:51.456Z,22.80
2018-05-09T09:30:51.434Z,22.73
2018-05-09T09:31:51.400Z,23.02
2018-05-09T09:32:51.396Z,24.67
2018-05-09T09:33:51.366Z,24.99
2018-05-09T09:34:51.351Z,26.07
2018-05-09T09:35:51.327Z,26.26
2018-05-09T09:36:51.311Z,26.52
2018-05-09T09:37:51.282Z,27.09
2018-05-09T09:38:51.271Z,27.43
2018-05-09T09:39:51.275Z,27.27
2018-05-09T09:40:51.227Z,26.15
2018-05-09T09:41:51.271Z,26.01
2018-05-09T09:42:51.182Z,26.40
2018-05-09T09:43:51.153Z,27.00
2018-05-09T09:44:51.142Z,27.67
2018-05-09T09:45:51.111Z,27.57
2018-05-09T09:46:51.129Z,27.29
2018-05-09T09:47:51.080Z,26.67
2018-05-09T09:48:51.056Z,27.00
2018-05-09T09:49:51.113Z,25.97
2018-05-09T09:50:51.029Z,26.52
2018-05-09T09:51:50.983Z,26.52
2018-05-09T09:52:50.978Z,27.12
2018-05-09T09:53:50.978Z,27.74
2018-05-09T09:54:50.948Z,27.24
2018-05-09T09:55:50.914Z,27.39
2018-05-09T09:56:50.890Z,27.93
2018-05-09T09:57:50.875Z,25.83
2018-05-09T09:58:50.858Z,26.06
2018-05-09T09:59:50.852Z,25.91
2018-05-09T10:00:50.822Z,26.33
2018-05-09T10:01:50.802Z,26.99
2018-05-09T10:02:50.775Z,27.41
2018-05-09T10:03:51.528Z,27.72
2018-05-09T10:04:50.768Z,28.14
2018-05-09T10:05:50.752Z,27.13
2018-05-09T10:06:50.688Z,25.85
2018-05-09T10:07:50.679Z,26.85
2018-05-09T10:08:50.658Z,27.77
2018-05-09T10:09:50.655Z,28.29
2018-05-09T10:10:50.665Z,27.93
2018-05-09T10:11:50.596Z,27.96
2018-05-09T10:12:50.582Z,27.88
2018-05-09T10:13:50.562Z,27.88
2018-05-09T10:14:50.533Z,27.59
2018-05-09T10:15:50.546Z,26.88
2018-05-09T10:16:50.514Z,27.10
2018-05-09T10:17:50.476Z,27.60
2018-05-09T10:18:50.456Z,27.00
2018-05-09T10:19:50.445Z,26.07
2018-05-09T10:20:50.432Z,25.15
2018-05-09T10:21:50.395Z,25.00
2018-05-09T10:22:50.388Z,25.38
2018-05-09T10:23:50.360Z,26.23
2018-05-09T10:24:50.330Z,26.77
2018-05-09T10:25:50.336Z,26.32
2018-05-09T10:26:50.305Z,25.70
2018-05-09T10:27:50.300Z,24.12
2018-05-09T10:28:50.261Z,23.19
2018-05-09T10:29:50.263Z,23.95
2018-05-09T10:30:50.283Z,25.35
2018-05-09T10:31:50.281Z,25.90
2018-05-09T10:32:50.185Z,26.76
2018-05-09T10:33:50.154Z,27.79
2018-05-09T10:34:50.154Z,28.33
2018-05-09T10:35:50.135Z,28.98
2018-05-09T10:36:50.162Z,29.76
2018-05-09T10:37:50.079Z,27.94
2018-05-09T10:38:50.042Z,27.25
2018-05-09T10:39:50.029Z,27.40
2018-05-09T10:40:50.037Z,27.14
2018-05-09T10:41:50.011Z,26.43
2018-05-09T10:42:49.963Z,25.95
2018-05-09T10:43:49.955Z,25.80
2018-05-09T10:44:49.951Z,25.54
2018-05-09T10:45:49.918Z,25.39
2018-05-09T10:46:49.900Z,25.14
2018-05-09T10:47:49.880Z,25.06
2018-05-09T10:48:49.863Z,24.76
2018-05-09T10:49:49.872Z,25.14
2018-05-09T10:50:49.852Z,25.62
2018-05-09T10:51:49.799Z,27.25
2018-05-09T10:52:50.561Z,27.96
2018-05-09T10:53:49.742Z,27.27
2018-05-09T10:54:49.725Z,26.40
2018-05-09T10:55:49.707Z,25.73
2018-05-09T10:56:49.705Z,25.55
2018-05-09T10:57:49.697Z,25.17
2018-05-09T10:58:49.635Z,24.80
2018-05-09T10:59:49.628Z,24.53
2018-05-09T11:00:49.598Z,24.20
2018-05-09T11:01:49.579Z,23.84
2018-05-09T11:02:49.555Z,23.68
2018-05-09T11:03:49.524Z,23.85
2018-05-09T11:04:49.512Z,24.00
2018-05-09T11:05:49.486Z,24.30
2018-05-09T11:06:49.472Z,24.43
2018-05-09T11:07:49.443Z,24.76
2018-05-09T11:08:49.435Z,25.27
2018-05-09T11:09:49.395Z,25.55
2018-05-09T11:10:49.399Z,26.02
2018-05-09T11:11:49.347Z,26.32
2018-05-09T11:12:49.342Z,26.60
2018-05-09T11:13:49.351Z,26.85
2018-05-09T11:14:49.318Z,27.75
2018-05-09T11:15:49.265Z,27.75
2018-05-09T11:16:49.239Z,26.63
2018-05-09T11:17:49.219Z,26.82
2018-05-09T11:18:49.224Z,26.06
2018-05-09T11:19:49.201Z,25.72
2018-05-09T11:20:49.161Z,25.98
2018-05-09T11:21:49.174Z,26.23
2018-05-09T11:22:49.132Z,26.26
2018-05-09T11:23:49.107Z,26.87
2018-05-09T11:24:49.070Z,27.81
2018-05-09T11:25:49.036Z,27.82
2018-05-09T11:26:49.038Z,27.82
2018-05-09T11:27:49.007Z,27.19
2018-05-09T11:28:48.977Z,26.29
2018-05-09T11:29:48.957Z,25.54
2018-05-09T11:30:48.931Z,25.18
2018-05-09T11:31:48.920Z,24.88
2018-05-09T11:32:48.895Z,24.30
2018-05-09T11:33:48.880Z,24.34
2018-05-09T11:34:48.873Z,24.28
2018-05-09T11:35:48.824Z,24.37
2018-05-09T11:36:48.895Z,24.57
2018-05-09T11:37:48.776Z,24.16
2018-05-09T11:38:48.765Z,24.27
2018-05-09T11:39:48.759Z,24.32
2018-05-09T11:40:48.720Z,24.10
2018-05-09T11:41:48.700Z,24.18
2018-05-09T11:42:48.706Z,24.16
2018-05-09T11:43:48.670Z,24.31
2018-05-09T11:44:48.665Z,24.60
2018-05-09T11:45:48.613Z,25.06
2018-05-09T11:46:48.609Z,25.23
2018-05-09T11:47:48.563Z,25.18
2018-05-09T11:48:48.535Z,25.45
2018-05-09T11:49:48.522Z,25.18
2018-05-09T11:50:48.604Z,25.00
2018-05-09T11:51:48.468Z,24.98
2018-05-09T11:52:48.478Z,24.87
2018-05-09T11:53:48.437Z,24.71
2018-05-09T11:54:48.406Z,24.68
2018-05-09T11:55:48.399Z,24.76
2018-05-09T11:56:48.372Z,24.88
2018-05-09T11:57:48.330Z,25.14
2018-05-09T11:58:48.324Z,26.43
2018-05-09T11:59:48.298Z,27.25
2018-05-09T12:00:48.284Z,26.80
2018-05-09T12:01:48.263Z,26.65
2018-05-09T12:02:48.257Z,26.82
2018-05-09T12:03:49.101Z,26.72
2018-05-09T12:04:48.182Z,26.26
2018-05-09T12:05:48.168Z,26.77
2018-05-09T12:06:48.136Z,27.57
2018-05-09T12:07:48.125Z,27.97
2018-05-09T12:08:48.094Z,27.10
2018-05-09T12:09:48.063Z,26.80
2018-05-09T12:10:48.164Z,26.81
2018-05-09T12:11:48.030Z,26.26
2018-05-09T12:12:48.006Z,25.60
2018-05-09T12:13:47.976Z,25.40
2018-05-09T12:14:47.960Z,25.38
2018-05-09T12:15:47.933Z,26.47
2018-05-09T12:16:47.920Z,27.09
2018-05-09T12:17:47.883Z,27.27
2018-05-09T12:18:47.880Z,26.69
2018-05-09T12:19:47.862Z,26.10
2018-05-09T12:20:47.825Z,26.57
2018-05-09T12:21:47.802Z,27.06
2018-05-09T12:22:47.788Z,27.59
2018-05-09T12:23:47.758Z,27.93
2018-05-09T12:24:47.748Z,27.87
2018-05-09T12:25:47.717Z,27.74
2018-05-09T12:26:47.684Z,27.82
2018-05-09T12:27:47.660Z,27.88
2018-05-09T12:28:47.645Z,26.99
2018-05-09T12:29:47.623Z,27.12
2018-05-09T12:30:47.594Z,26.89
2018-05-09T12:31:47.600Z,27.12
2018-05-09T12:32:47.569Z,26.29
2018-05-09T12:33:47.544Z,25.99
2018-05-09T12:34:47.530Z,25.98
2018-05-09T12:35:47.548Z,25.91
2018-05-09T12:36:47.485Z,26.23
2018-05-09T12:37:47.457Z,26.37
2018-05-09T12:38:47.442Z,27.28
2018-05-09T12:39:47.413Z,27.27
2018-05-09T12:40:47.431Z,26.76
2018-05-09T12:41:47.379Z,26.15
2018-05-09T12:42:47.387Z,25.54
2018-05-09T12:43:47.333Z,26.43
2018-05-09T12:44:47.323Z,26.77
2018-05-09T12:45:47.284Z,27.21
2018-05-09T12:46:47.279Z,26.76
2018-05-09T12:47:47.276Z,25.90
2018-05-09T12:48:47.257Z,25.72
2018-05-09T12:49:47.210Z,24.99
2018-05-09T12:50:47.176Z,25.10
2018-05-09T12:51:47.184Z,25.17
2018-05-09T12:52:47.140Z,25.95
2018-05-09T12:53:47.143Z,26.62
2018-05-09T12:54:47.097Z,27.03
2018-05-09T12:55:47.072Z,27.07
2018-05-09T12:56:47.054Z,27.36
2018-05-09T12:57:47.043Z,27.21
2018-05-09T12:58:47.025Z,26.95
2018-05-09T12:59:47.003Z,27.13
2018-05-09T13:00:46.968Z,27.34
2018-05-09T13:01:46.948Z,26.60